• Join FlightAware (Why Join?)
  • Login
  • US Flag 
01:02PM EST


 

Airport Tracker/Info


-or-


 

Live Flight TrackerFlight Track Log ✈ N729JB ✈ 08-Apr-2013 ✈ MDSD / SDQ - KJFK

Flight Track Log - Related Links

Times and Time Zones

All times are in EDT time to prevent confusion due to time zone crossing. See the N729JB flight status page for this flight to view local times or setup timezone preferences in your user account.

Time Position Orientation Groundspeed Altitude Reporting Facility
EDT Latitude Longitude Course Direction KTS MPH feet Rate Location/Type
09:01PM 18.9372 -69.8189 342° North 452 520 16,300  Level Miami Center
09:02PM 19.0472 -69.8572 342° North 434 499 17,700 1,380 Climbing Miami Center
09:03PM 19.1508 -69.8981 340° North 414 476 19,100 1,200 Climbing Miami Center
09:04PM 19.2631 -69.9408 340° North 408 470 20,100 900 Climbing Miami Center
09:05PM 19.3772 -69.9814 341° North 421 484 21,000 900 Climbing Miami Center
09:06PM 19.4917 -70.0306 342° North 433 498 22,000 1,080 Climbing Miami Center
09:07PM 19.6189 -70.0356 358° North 453 521 23,200 1,380 Climbing Miami Center
09:08PM 19.7439 -70.0361 360° North 446 513 24,800 1,200 Climbing Miami Center
09:09PM 19.8689 -70.0386 359° North 446 513 25,600 840 Climbing Miami Center
09:10PM 19.9939 -70.0414 359° North 446 513 26,500 720 Climbing Miami Center
09:11PM 20.1250 -70.0394 North 451 519 27,100 1,140 Climbing Miami Center
09:12PM 20.2561 -70.0375 North 461 531 28,800 1,380 Climbing Miami Center
09:13PM 20.3811 -70.0378 360° North 461 531 29,900 900 Climbing Miami Center
09:14PM 20.5061 -70.0383 360° North 455 524 30,700 840 Climbing Miami Center
09:15PM 20.6311 -70.0389 360° North 455 524 31,600 900 Climbing Miami Center
09:16PM 20.7561 -70.0369 North 450 518 32,600 1,020 Climbing Miami Center
09:17PM 20.8811 -70.0375 360° North 445 512 33,700 660 Climbing Miami Center
09:18PM 21.0022 -70.0381 360° North 440 506 34,000 120 Climbing Miami Center
09:19PM 21.1250 -70.0364 North 440 506 34,000  Level Miami Center
09:20PM 21.2481 -70.0367 360° North 440 506 34,000  Level Miami Center
09:21PM 21.3708 -70.0372 360° North 440 506 34,000  Level Miami Center
09:22PM 21.4939 -70.0375 360° North 440 506 34,000  Level Miami Center
09:23PM 21.6192 -70.0378 360° North 440 506 34,000  Level Miami Center
09:24PM 21.7400 -70.0383 360° North 440 506 34,000  Level Miami Center
09:25PM 21.8650 -70.0386 360° North 440 506 34,000  Level Miami Center
09:26PM 21.9922 -70.0389 360° North 440 506 34,000  Level Miami Center
09:27PM 22.1133 -70.0394 360° North 440 506 34,000  Level Miami Center
09:28PM 22.2383 -70.0397 360° North 440 506 34,000  Level Miami Center
09:29PM 22.3636 -70.0397 360° North 440 506 34,000  Level Miami Center
09:30PM 22.4844 -70.0403 360° North 440 506 34,000  Level Miami Center
09:31PM 22.6075 -70.0406 360° North 440 506 34,000  Level Miami Center
09:32PM 22.7286 -70.0408 360° North 440 506 34,000  Level Miami Center
09:33PM 22.8494 -70.0414 360° North 440 506 34,000  Level Miami Center
09:34PM 22.9706 -70.0417 360° North 440 506 34,000  Level Miami Center
09:35PM 23.0894 -70.0422 360° North 440 506 34,000  Level Miami Center
09:36PM 23.2125 -70.0403 North 440 506 34,000  Level Miami Center
09:37PM 23.3314 -70.0406 360° North 440 506 34,000  Level Miami Center
09:38PM 23.4522 -70.0408 360° North 440 506 34,000  Level Miami Center
09:39PM 23.5733 -70.0389 North 440 506 34,000  Level Miami Center
09:40PM 23.6967 -70.0436 358° North 440 506 34,000  Level Miami Center
09:41PM 23.8133 -70.0419 North 434 499 34,000  Level Miami Center
09:42PM 23.9364 -70.0419 360° North 434 499 34,000  Level Miami Center
09:43PM 24.0597 -70.0467 358° North 434 499 34,000  Level Miami Center
09:44PM 24.1831 -70.0492 359° North 440 506 34,000  Level Miami Center
09:45PM 24.3058 -70.0469 North 440 506 34,000  Level Miami Center
09:46PM 24.4281 -70.0267 North 440 506 34,000  Level Miami Center
09:47PM 24.5531 -70.0242 North 440 506 34,000  Level Miami Center
09:48PM 24.6764 -70.0289 358° North 440 506 34,000  Level Miami Center
09:49PM 24.7997 -70.0289 360° North 440 506 34,000  Level Miami Center
09:50PM 24.9228 -70.0311 359° North 440 506 34,000  Level Miami Center
09:52PM 25.0860 -70.0698 348° North  Level FlightAware Approximate
09:53PM 25.0000 -70.0500 348° North 433 498 34,000  Level New York Oceanic (ODAPS)
09:59PM 25.9460 -70.2704 348° North 433 498 34,000  Level FlightAware Transoceanic
10:00PM 26.0642 -70.2982 348° North 433 498 34,000  Level FlightAware Transoceanic
10:01PM 26.1825 -70.3261 348° North 433 498 34,000  Level FlightAware Transoceanic
10:02PM 26.3007 -70.3540 348° North 433 498 34,000  Level FlightAware Transoceanic
10:03PM 26.4189 -70.3820 348° North 433 498 34,000  Level FlightAware Transoceanic
10:04PM 26.5371 -70.4100 348° North 433 498 34,000  Level FlightAware Transoceanic
10:05PM 26.6553 -70.4381 348° North 433 498 34,000  Level FlightAware Transoceanic
10:06PM 26.7735 -70.4663 348° North 433 498 34,000  Level FlightAware Transoceanic
10:07PM 26.8917 -70.4945 348° North 433 498 34,000  Level FlightAware Transoceanic
10:08PM 27.0099 -70.5227 348° North 433 498 34,000  Level FlightAware Transoceanic
10:09PM 27.1280 -70.5510 348° North 433 498 34,000  Level FlightAware Transoceanic
10:10PM 27.2462 -70.5794 348° North 433 498 34,000  Level FlightAware Transoceanic
10:11PM 27.3644 -70.6079 348° North 433 498 34,000  Level FlightAware Transoceanic
10:12PM 27.4825 -70.6364 348° North 433 498 34,000  Level FlightAware Transoceanic
10:13PM 27.6007 -70.6649 348° North 433 498 34,000  Level FlightAware Transoceanic
10:14PM 27.7188 -70.6936 348° North 433 498 34,000  Level FlightAware Transoceanic
10:15PM 27.8370 -70.7223 348° North 433 498 34,000  Level FlightAware Transoceanic
10:16PM 27.9551 -70.7510 348° North 433 498 34,000  Level FlightAware Transoceanic
10:17PM 28.0732 -70.7798 348° North 433 498 34,000  Level FlightAware Transoceanic
10:18PM 28.1914 -70.8087 348° North 433 498 34,000  Level FlightAware Transoceanic
10:19PM 28.3095 -70.8376 348° North 433 498 34,000  Level FlightAware Transoceanic
10:20PM 28.4276 -70.8667 348° North 433 498 34,000  Level FlightAware Transoceanic
10:21PM 28.5457 -70.8957 348° North 433 498 34,000  Level FlightAware Transoceanic
10:22PM 28.6638 -70.9249 348° North 433 498 34,000  Level FlightAware Transoceanic
10:23PM 28.7819 -70.9541 348° North 433 498 34,000  Level FlightAware Transoceanic
10:24PM 28.9000 -70.9833 348° North 433 498 34,000  Level FlightAware Transoceanic
10:24PM 28.9000 -70.9833 348° North 415 478 34,000  Level New York Oceanic (ODAPS)
10:25PM 29.0157 -71.0117 348° North 433 498 34,000  Level FlightAware Transoceanic
10:26PM 29.1313 -71.0402 348° North 433 498 34,000  Level FlightAware Transoceanic
10:27PM 29.2470 -71.0688 348° North 433 498 34,000  Level FlightAware Transoceanic
10:28PM 29.3626 -71.0974 348° North 433 498 34,000  Level FlightAware Transoceanic
10:29PM 29.4783 -71.1260 348° North 433 498 34,000  Level FlightAware Transoceanic
10:30PM 29.5785 -71.1509 348° North 415 478 34,000  Level FlightAware Transoceanic
10:31PM 29.6916 -71.1791 348° North 415 478 34,000  Level FlightAware Transoceanic
10:32PM 29.8047 -71.2073 348° North 415 478 34,000  Level FlightAware Transoceanic
10:33PM 29.9177 -71.2356 348° North 415 478 34,000  Level FlightAware Transoceanic
10:34PM 30.0308 -71.2639 348° North 415 478 34,000  Level FlightAware Transoceanic
10:35PM 30.1438 -71.2923 348° North 415 478 34,000  Level FlightAware Transoceanic
10:36PM 30.2568 -71.3208 348° North 415 478 34,000  Level FlightAware Transoceanic
10:37PM 30.3699 -71.3493 348° North 415 478 34,000  Level FlightAware Transoceanic
10:38PM 30.4829 -71.3779 348° North 415 478 34,000  Level FlightAware Transoceanic
10:39PM 30.5959 -71.4066 348° North 415 478 34,000  Level FlightAware Transoceanic
10:40PM 30.7089 -71.4353 348° North 415 478 34,000  Level FlightAware Transoceanic
10:41PM 30.8219 -71.4641 348° North 415 478 34,000  Level FlightAware Transoceanic
10:42PM 30.9349 -71.4930 348° North 415 478 34,000  Level FlightAware Transoceanic
10:43PM 31.0479 -71.5220 348° North 415 478 34,000  Level FlightAware Transoceanic
10:44PM 31.1609 -71.5510 348° North 415 478 34,000  Level FlightAware Transoceanic
10:45PM 31.2739 -71.5800 348° North 415 478 34,000  Level FlightAware Transoceanic
10:46PM 31.3869 -71.6092 348° North 415 478 34,000  Level FlightAware Transoceanic
10:47PM 31.4998 -71.6384 348° North 415 478 34,000  Level FlightAware Transoceanic
10:48PM 31.6128 -71.6677 348° North 415 478 34,000  Level FlightAware Transoceanic
10:49PM 31.7257 -71.6971 348° North 415 478 34,000  Level FlightAware Transoceanic
10:50PM 31.8387 -71.7265 348° North 415 478 34,000  Level FlightAware Transoceanic
10:51PM 31.9516 -71.7560 347° North 415 478 34,000  Level FlightAware Transoceanic
10:52PM 32.0646 -71.7856 347° North 415 478 34,000  Level FlightAware Transoceanic
10:53PM 32.1775 -71.8152 347° North 415 478 34,000  Level FlightAware Transoceanic
10:54PM 32.2904 -71.8450 347° North 415 478 34,000  Level FlightAware Transoceanic
10:55PM 32.4033 -71.8747 347° North 415 478 34,000  Level FlightAware Transoceanic
10:56PM 32.5162 -71.9046 347° North 415 478 34,000  Level FlightAware Transoceanic
10:57PM 32.6291 -71.9346 347° North 415 478 34,000  Level FlightAware Transoceanic
10:58PM 32.7420 -71.9646 347° North 415 478 34,000  Level FlightAware Transoceanic
10:59PM 32.8549 -71.9947 347° North 415 478 34,000  Level FlightAware Transoceanic
11:00PM 32.9678 -72.0249 347° North 415 478 34,000  Level FlightAware Transoceanic
11:01PM 33.0807 -72.0551 347° North 415 478 34,000  Level FlightAware Transoceanic
11:02PM 33.1935 -72.0855 347° North 415 478 34,000  Level FlightAware Transoceanic
11:03PM 33.3064 -72.1159 347° North 415 478 34,000  Level FlightAware Transoceanic
11:04PM 33.4192 -72.1464 347° North 415 478 34,000  Level FlightAware Transoceanic
11:05PM 33.5321 -72.1769 347° North 415 478 34,000  Level FlightAware Transoceanic
11:06PM 33.6449 -72.2076 347° North 415 478 34,000  Level FlightAware Transoceanic
11:07PM 33.7577 -72.2383 347° North 415 478 34,000  Level FlightAware Transoceanic
11:08PM 33.8705 -72.2691 347° North 415 478 34,000  Level FlightAware Transoceanic
11:09PM 33.9833 -72.3000 355° North 415 478 34,000  Level FlightAware Transoceanic
11:10PM 34.1019 -72.3128 355° North 415 478 34,000  Level FlightAware Transoceanic
11:11PM 34.2204 -72.3257 355° North 415 478 34,000  Level FlightAware Transoceanic
11:11PM 34.2308 -72.2964 355° North 459 528 34,000  Level New York Center
11:12PM 34.3389 -72.3386 355° North 415 478 34,000  Level FlightAware Transoceanic
11:12PM 34.3308 -72.3083 354° North 459 528 34,000  Level New York Center
11:13PM 34.4574 -72.3515 355° North 415 478 34,000  Level FlightAware Transoceanic
11:13PM 34.4475 -72.3233 354° North 410 472 34,000  Level New York Center
11:14PM 34.5759 -72.3644 355° North 415 478 34,000  Level FlightAware Transoceanic
11:14PM 34.5661 -72.3308 357° North 433 498 34,000  Level New York Center
11:15PM 34.6945 -72.3774 355° North 415 478 34,000  Level FlightAware Transoceanic
11:15PM 34.6786 -72.3506 352° North 420 483 34,000 -120 Level New York Center
11:16PM 34.8033 -72.3683 353° North 412 474 33,900  Descending New York Center
11:17PM 34.8825 -72.3800 353° North 412 474 34,000  Climbing New York Center
11:18PM 35.0178 -72.4083 350° North 445 512 34,000  Level New York Center
11:19PM 35.1367 -72.4108 359° North 429 494 34,000  Level New York Center
11:20PM 35.2556 -72.4083 North 417 480 34,000  Level New York Center
11:21PM 35.3767 -72.4083 360° North 423 487 34,000  Level New York Center
11:22PM 35.4975 -72.4058 North 423 487 34,000  Level New York Center
11:23PM 35.6122 -72.4083 359° North 416 479 34,000  Level New York Center
11:24PM 35.7311 -72.4056 North 421 484 34,000  Level New York Center
11:25PM 35.8544 -72.4031 North 421 484 34,000  Level New York Center
11:26PM 35.9733 -72.4031 360° North 426 490 34,000  Level New York Center
11:27PM 36.0922 -72.4006 North 421 484 34,000  Level New York Center
11:28PM 36.2111 -72.4006 360° North 416 479 34,000 -60 Level New York Center
11:29PM 36.3281 -72.3981 North 422 486 33,900  Descending New York Center
11:30PM 36.4469 -72.4006 359° North 422 486 34,000  Climbing New York Center
11:31PM 36.5681 -72.3981 North 417 480 34,000  Level New York Center
11:32PM 36.6911 -72.3956 North 422 486 34,000  Level New York Center
11:33PM 36.8058 -72.3956 360° North 422 486 34,000  Level New York Center
11:34PM 36.9247 -72.3956 360° North 422 486 34,000  Level New York Center
11:35PM 37.0392 -72.4189 351° North 417 480 34,000  Level New York Center
11:36PM 37.1469 -72.4681 340° North 411 473 34,000  Level New York Center
11:37PM 37.2567 -72.5228 338° Northwest 419 482 34,000  Level New York Center
11:38PM 37.3686 -72.5725 341° North 419 482 34,000  Level New York Center
11:39PM 37.4742 -72.6247 339° North 417 480 34,000  Level New York Center
11:40PM 37.5817 -72.6747 340° North 411 473 34,000 -60 Level New York Center
11:41PM 37.6933 -72.7328 338° Northwest 393 452 33,900 -60 Descending New York Center
11:42PM 37.7925 -72.7933 334° Northwest 393 452 33,900 -360 Level New York Center
11:43PM 37.9086 -72.8308 346° North 409 471 33,200 -840 Descending New York Center
11:44PM 38.0161 -72.8892 337° Northwest 414 476 32,200 -960 Descending New York Center
11:45PM 38.1278 -72.9400 340° North 414 476 31,300 -1,020 Descending New York Center
11:46PM 38.2414 -72.9911 341° North 420 483 30,300 -960 Descending New York Center
11:47PM 38.3531 -73.0447 339° North 430 495 29,400 -780 Descending New York Center
11:48PM 38.4689 -73.1014 339° North 437 503 28,800 -600 Descending New York Center
11:49PM 38.5864 -73.1583 339° North 437 503 28,200 -600 Descending New York Center
11:50PM 38.6978 -73.2153 338° Northwest 437 503 27,600 -600 Descending New York Center
11:51PM 38.8156 -73.2700 340° North 443 510 27,100 -600 Descending New York Center
11:52PM 38.9353 -73.3278 339° North 443 510 26,500 -900 Descending New York Center
11:53PM 39.0528 -73.3853 339° North 443 510 25,400 -2,460 Descending New York Center
11:54PM 39.1703 -73.4433 339° North 443 510 21,700 -3,180 Descending New York Center
11:55PM 39.2817 -73.4983 339° North 443 510 19,100 -1,680 Descending New York Center
11:56PM 39.3889 -73.5511 339° North 428 493 18,400 -1,080 Descending New York Center
11:57PM 39.5072 -73.5692 353° North 423 487 17,000 -1,980 Descending New York Center
11:58PM 39.6214 -73.5900 352° North 418 481 14,500 -2,640 Descending New York Center
11:59PM 39.7336 -73.6106 352° North 412 474 11,700 -2,040 Descending New York Center
12:00AM 39.8353 -73.6283 352° North 395 455 10,500 -900 Descending New York Center
12:01AM 39.9225 -73.6453 352° North 351 404 10,000 -900 Descending New York Center
12:02AM 40.0014 -73.6567 354° North 312 359 8,800 -1,320 Descending New York Center
12:03AM 40.0803 -73.6600 358° North 278 320 7,500 -1,080 Descending New York Center
12:04AM 40.1333 -73.6667 355° North 283 326 7,000 -840 Descending New York TRACON
12:05AM 40.2167 -73.6667 360° North 283 326 6,100 -1,260 Descending New York TRACON
12:06AM 40.3000 -73.6667 360° North 284 327 4,500 -1,500 Descending New York TRACON
12:07AM 40.3667 -73.6667 360° North 284 327 3,200 -780 Descending New York TRACON
12:08AM 40.4500 -73.6833 351° North 285 328 3,000 -180 Descending New York TRACON
12:09AM 40.5333 -73.6833 360° North 277 319 2,900 -420 Descending New York TRACON
12:10AM 40.6000 -73.6667 11° North 236 272 2,200 -720 Descending New York TRACON
12:11AM 40.6500 -73.6667 360° North 175 201 1,500 -600 Descending New York TRACON
12:12AM 40.6667 -73.7167 294° West 147 169 1,000 3,720 Descending New York TRACON
12:14AM 40.6414 -73.8122 251° West 116 133 14,000 3,900 Climbing New York Center
12:15AM 40.6297 -73.8528 249° West 116 133 14,000  Level New York Center